Time;durP1;ratioP1;P1;durP2;ratioP2;P2;SDS_P1;SDS_P2;PMS_P1;PMS_P2;Temp;Humidity;BMP_temperature;BMP_pressure;BME280_temperature;BME280_humidity;BME280_pressure;Samples;Min_cycle;Max_cycle;Signal;HPM_P1;HPM_P2
2023/05/13 00:00:28;;;;;;;7.43;5.32;;;;;;;14.69;45.25;101484.69;4932323;28;20638;-74
2023/05/13 00:02:56;;;;;;;7.35;5.97;;;;;;;14.67;44.88;101481.22;4935559;29;20043;-74
2023/05/13 00:05:24;;;;;;;7.05;5.57;;;;;;;14.66;44.93;101479.50;4988433;23;20102;-70
2023/05/13 00:07:52;;;;;;;8.93;6.72;;;;;;;14.64;45.41;101479.63;4974742;28;20441;-70
2023/05/13 00:10:20;;;;;;;7.13;6.15;;;;;;;14.64;45.42;101481.50;4971445;28;20065;-71
2023/05/13 00:12:50;;;;;;;8.02;6.38;;;;;;;14.64;45.35;101479.63;4981507;28;20442;-71
2023/05/13 00:15:18;;;;;;;7.15;5.95;;;;;;;14.62;45.08;101470.63;4966395;28;20074;-70
2023/05/13 00:17:46;;;;;;;7.82;5.85;;;;;;;14.61;45.42;101473.53;4964366;28;20073;-72
2023/05/13 00:20:14;;;;;;;8.68;6.03;;;;;;;14.60;45.21;101469.91;4967128;28;20533;-70
2023/05/13 00:22:42;;;;;;;8.82;6.32;;;;;;;14.60;45.00;101469.06;4953687;28;20043;-72
2023/05/13 00:25:10;;;;;;;7.32;6.28;;;;;;;14.59;45.01;101472.81;4956765;28;20522;-69
2023/05/13 00:27:38;;;;;;;7.10;5.72;;;;;;;14.58;45.16;101477.47;4952051;28;20047;-72
2023/05/13 00:30:09;;;;;;;7.78;6.30;;;;;;;14.59;45.24;101476.44;4965242;28;20125;-70
2023/05/13 00:32:37;;;;;;;6.65;5.90;;;;;;;14.57;45.36;101480.34;4971407;28;20042;-72
2023/05/13 00:35:05;;;;;;;7.63;6.50;;;;;;;14.57;45.52;101483.97;4955568;28;20127;-72
2023/05/13 00:37:33;;;;;;;7.20;5.75;;;;;;;14.56;45.37;101479.50;4963288;28;20061;-72
2023/05/13 00:40:02;;;;;;;7.35;6.05;;;;;;;14.56;45.66;101479.50;4970901;28;20053;-71
2023/05/13 00:42:30;;;;;;;8.07;6.38;;;;;;;14.54;45.39;101478.75;4979879;28;20101;-72
2023/05/13 00:44:58;;;;;;;8.23;6.05;;;;;;;14.54;45.73;101484.25;4949189;28;20051;-72
2023/05/13 00:47:27;;;;;;;8.60;7.05;;;;;;;14.56;45.33;101487.75;4963696;28;20521;-72
2023/05/13 00:49:55;;;;;;;10.10;6.85;;;;;;;14.53;45.86;101485.28;4971944;28;20055;-71
2023/05/13 00:52:23;;;;;;;8.00;6.60;;;;;;;14.52;45.81;101486.28;4967200;28;20042;-71
2023/05/13 00:54:51;;;;;;;9.55;7.03;;;;;;;14.51;45.68;101486.47;4966496;28;20051;-71
2023/05/13 00:57:19;;;;;;;7.72;6.82;;;;;;;14.50;45.69;101484.72;4949641;28;20485;-72
2023/05/13 00:59:48;;;;;;;8.50;6.55;;;;;;;14.49;45.32;101488.47;4965606;28;20494;-71
2023/05/13 01:02:23;;;;;;;8.63;6.35;;;;;;;14.50;46.05;101482.84;4961354;28;20031;-72
2023/05/13 01:05:13;;;;;;;7.65;6.40;;;;;;;14.48;45.75;101482.09;4967359;28;20248;-72
2023/05/13 01:07:49;;;;;;;8.35;6.47;;;;;;;14.46;45.70;101478.56;4956496;28;20055;-71
2023/05/13 01:10:24;;;;;;;8.82;6.82;;;;;;;14.46;45.74;101477.69;4972366;28;20051;-72
2023/05/13 01:12:56;;;;;;;7.38;6.32;;;;;;;14.45;46.03;101481.47;4961355;28;20050;-71
2023/05/13 01:15:26;;;;;;;8.40;6.63;;;;;;;14.41;46.05;101482.78;4964345;28;20564;-72
2023/05/13 01:18:00;;;;;;;7.80;6.50;;;;;;;14.43;46.09;101487.16;4951923;28;20180;-72
2023/05/13 01:20:31;;;;;;;8.55;6.50;;;;;;;14.42;46.11;101490.91;4962485;28;20039;-71
2023/05/13 01:23:02;;;;;;;10.77;6.68;;;;;;;14.41;45.56;101483.66;4958741;28;20039;-72
2023/05/13 01:25:31;;;;;;;8.52;7.10;;;;;;;14.38;45.61;101479.31;4971114;28;20055;-72
2023/05/13 01:28:00;;;;;;;8.40;6.72;;;;;;;14.38;46.21;101473.78;4974227;28;20138;-71
2023/05/13 01:30:30;;;;;;;8.80;6.90;;;;;;;14.37;45.71;101477.56;4948661;28;20126;-72
2023/05/13 01:32:59;;;;;;;9.07;6.88;;;;;;;14.37;45.92;101479.44;4957275;28;20051;-72
2023/05/13 01:35:28;;;;;;;8.80;6.93;;;;;;;14.35;45.70;101484.25;4968986;28;20120;-72
2023/05/13 01:37:57;;;;;;;7.53;6.57;;;;;;;14.36;45.74;101485.97;4971728;28;20047;-71
2023/05/13 01:40:27;;;;;;;8.95;6.53;;;;;;;14.35;46.32;101487.00;4968551;28;20047;-71
2023/05/13 01:43:04;;;;;;;7.28;6.25;;;;;;;14.32;45.86;101485.38;4975228;28;20050;-71
2023/05/13 01:45:33;;;;;;;7.70;5.72;;;;;;;14.32;46.25;101492.78;4965256;28;20043;-72
2023/05/13 01:48:01;;;;;;;8.75;6.82;;;;;;;14.32;45.97;101484.53;4963788;28;20047;-72
2023/05/13 01:50:39;;;;;;;9.57;7.07;;;;;;;14.31;46.18;101491.03;4975581;28;20039;-70
2023/05/13 01:53:08;;;;;;;7.05;6.35;;;;;;;14.31;46.38;101488.28;4962086;28;20046;-70
2023/05/13 01:55:39;;;;;;;8.20;6.65;;;;;;;14.32;46.49;101490.91;4962440;28;20043;-70
2023/05/13 01:58:07;;;;;;;8.90;7.00;;;;;;;14.31;46.17;101483.66;4952641;28;20043;-70
2023/05/13 02:00:35;;;;;;;9.73;6.78;;;;;;;14.30;46.49;101490.16;4963549;28;20134;-70
2023/05/13 02:03:03;;;;;;;7.70;6.68;;;;;;;14.31;46.46;101485.53;4945074;28;20359;-70
2023/05/13 02:05:32;;;;;;;8.77;7.10;;;;;;;14.30;46.61;101484.66;4958524;28;20042;-70
2023/05/13 02:08:03;;;;;;;;;;;;;;;14.02;47.36;101486.34;4958361;28;20047;-70
2023/05/13 02:10:32;;;;;;;7.75;5.88;;;;;;;14.25;46.68;101481.47;4975356;28;20317;-70
2023/05/13 02:13:02;;;;;;;8.48;6.47;;;;;;;14.30;46.14;101475.53;4956824;28;20505;-70
2023/05/13 02:15:31;;;;;;;7.40;6.22;;;;;;;14.29;46.27;101484.78;4962786;28;20288;-71
2023/05/13 02:17:59;;;;;;;7.93;6.38;;;;;;;14.28;46.34;101486.69;4960724;28;20050;-70
2023/05/13 02:20:27;;;;;;;7.50;6.57;;;;;;;14.29;46.21;101485.66;4962129;28;20047;-70
2023/05/13 02:22:55;;;;;;;6.40;5.72;;;;;;;14.28;46.54;101480.31;4964921;28;20035;-69
2023/05/13 02:25:23;;;;;;;7.68;6.43;;;;;;;14.29;46.77;101484.78;4954905;28;20130;-69
2023/05/13 02:27:51;;;;;;;7.10;6.40;;;;;;;14.28;46.22;101488.56;4964242;28;20129;-70
2023/05/13 02:30:25;;;;;;;7.88;6.30;;;;;;;14.30;46.41;101484.66;4956089;28;20066;-70
2023/05/13 02:32:53;;;;;;;8.00;6.20;;;;;;;14.28;46.31;101477.53;4952190;28;20558;-70
2023/05/13 02:35:23;;;;;;;7.63;6.45;;;;;;;14.28;46.52;101477.53;4953130;28;20055;-70
2023/05/13 02:37:51;;;;;;;8.00;6.47;;;;;;;14.27;46.56;101481.34;4949945;28;20035;-70
2023/05/13 02:40:19;;;;;;;8.35;6.78;;;;;;;14.26;46.80;101480.47;4963782;28;20055;-70
2023/05/13 02:42:48;;;;;;;7.53;6.30;;;;;;;14.26;46.74;101483.22;4970071;28;20499;-70
2023/05/13 02:45:23;;;;;;;8.15;6.78;;;;;;;14.26;46.65;101482.34;4948487;28;20143;-70
2023/05/13 02:47:55;;;;;;;8.38;6.53;;;;;;;14.23;46.65;101482.63;4950377;28;20047;-69
2023/05/13 02:50:23;;;;;;;7.25;6.38;;;;;;;14.22;46.69;101479.00;4977821;28;20051;-70
2023/05/13 02:52:51;;;;;;;7.57;6.32;;;;;;;14.22;46.68;101481.75;4966311;28;20039;-70
2023/05/13 02:55:19;;;;;;;7.95;6.40;;;;;;;14.21;46.86;101473.63;4960527;28;20058;-70
2023/05/13 02:57:47;;;;;;;7.63;6.72;;;;;;;14.21;46.96;101473.63;4959834;28;20106;-70
2023/05/13 03:00:16;;;;;;;8.77;6.47;;;;;;;14.21;46.31;101474.50;4962907;28;20058;-71
2023/05/13 03:02:45;;;;;;;8.40;6.68;;;;;;;14.22;46.82;101473.50;4969074;28;20515;-72
2023/05/13 03:05:13;;;;;;;7.72;6.68;;;;;;;14.20;46.67;101470.00;4963257;28;20065;-70
2023/05/13 03:07:42;;;;;;;8.00;6.85;;;;;;;14.19;46.90;101471.00;4961367;28;20054;-71
2023/05/13 03:10:10;;;;;;;7.28;6.05;;;;;;;14.20;46.37;101474.63;4971014;28;20059;-71
2023/05/13 03:12:38;;;;;;;7.18;6.28;;;;;;;14.19;46.30;101468.25;4964837;28;20043;-70
2023/05/13 03:15:06;;;;;;;8.00;6.50;;;;;;;14.19;46.78;101472.94;4967883;28;20391;-72
2023/05/13 03:17:35;;;;;;;7.78;6.85;;;;;;;14.17;46.83;101473.06;4959723;28;20074;-71
2023/05/13 03:20:05;;;;;;;7.82;7.03;;;;;;;14.19;46.51;101478.44;4948846;28;20051;-70
2023/05/13 03:22:33;;;;;;;8.35;6.47;;;;;;;14.17;46.76;101483.22;4979187;28;20097;-70
2023/05/13 03:25:01;;;;;;;7.80;6.88;;;;;;;14.16;46.42;101478.72;4954189;28;20062;-70
2023/05/13 03:27:35;;;;;;;8.63;7.15;;;;;;;14.14;46.49;101475.22;4955701;28;20507;-71
2023/05/13 03:30:03;;;;;;;9.25;7.57;;;;;;;14.13;46.12;101479.84;4962419;28;20101;-70
2023/05/13 03:32:32;;;;;;;8.73;7.07;;;;;;;14.13;46.72;101481.72;4978894;28;20039;-70
2023/05/13 03:35:00;;;;;;;7.65;6.65;;;;;;;14.12;46.53;101483.63;4978510;28;20050;-70
2023/05/13 03:37:31;;;;;;;8.27;7.07;;;;;;;14.12;46.22;101474.47;4959180;28;20078;-71
2023/05/13 03:40:00;;;;;;;8.52;7.22;;;;;;;14.10;46.81;101479.28;4984068;28;20488;-71
2023/05/13 03:42:29;;;;;;;8.65;7.22;;;;;;;14.09;46.47;101481.16;4987625;28;20105;-71
2023/05/13 03:45:00;;;;;;;8.52;7.05;;;;;;;14.06;46.67;101480.56;4963781;28;20055;-71
2023/05/13 03:47:28;;;;;;;8.10;7.07;;;;;;;14.07;46.81;101488.69;4978512;28;20059;-71
2023/05/13 03:50:00;;;;;;;8.43;6.93;;;;;;;14.05;46.67;101484.31;4956672;28;20133;-71
2023/05/13 03:52:35;;;;;;;8.10;7.13;;;;;;;14.06;46.65;101492.44;4956536;28;20043;-71
2023/05/13 03:55:04;;;;;;;7.32;6.50;;;;;;;14.06;46.11;101492.44;4945190;28;20133;-71
2023/05/13 03:57:33;;;;;;;7.38;6.63;;;;;;;14.03;46.59;101487.22;4967872;28;20057;-71
2023/05/13 04:00:02;;;;;;;9.90;7.32;;;;;;;14.03;46.41;101484.47;4968254;28;20050;-71
2023/05/13 04:02:41;;;;;;;8.30;6.88;;;;;;;14.02;45.99;101496.50;4963789;28;20054;-71
2023/05/13 04:05:12;;;;;;;9.02;7.13;;;;;;;14.01;45.97;101483.75;4984364;28;20514;-71
2023/05/13 04:07:42;;;;;;;7.72;6.90;;;;;;;14.02;46.26;101500.09;4970198;28;20051;-71
2023/05/13 04:10:10;;;;;;;8.15;6.95;;;;;;;14.01;46.39;101497.53;4954947;28;20055;-71
2023/05/13 04:12:42;;;;;;;8.00;7.18;;;;;;;13.98;46.30;101497.78;4971062;28;20505;-71
2023/05/13 04:15:10;;;;;;;8.48;7.00;;;;;;;14.00;45.91;101491.16;4958031;28;20499;-71
2023/05/13 04:17:38;;;;;;;8.38;6.50;;;;;;;14.00;46.17;101498.53;4966844;28;20067;-71
2023/05/13 04:20:07;;;;;;;8.52;7.30;;;;;;;14.00;46.43;101504.03;4953165;28;20058;-71
2023/05/13 04:22:35;;;;;;;8.05;6.60;;;;;;;13.99;45.83;101499.53;4971889;28;20098;-71
2023/05/13 04:25:05;;;;;;;7.80;6.88;;;;;;;14.01;45.77;101508.53;4972889;28;20046;-70
2023/05/13 04:27:34;;;;;;;8.20;6.75;;;;;;;13.99;46.29;101507.78;4986442;28;20109;-71
2023/05/13 04:30:08;;;;;;;8.15;7.10;;;;;;;13.99;46.50;101502.28;4966345;28;20079;-71
2023/05/13 04:32:38;;;;;;;8.38;6.72;;;;;;;13.99;45.96;101511.41;4978626;28;20134;-71
2023/05/13 04:35:07;;;;;;;8.55;6.68;;;;;;;14.00;46.50;101504.03;4973266;28;20047;-71
2023/05/13 04:37:35;;;;;;;9.35;6.95;;;;;;;14.00;46.04;101509.53;4967081;28;20712;-71
2023/05/13 04:40:08;;;;;;;10.18;7.20;;;;;;;14.02;46.10;101516.63;4978824;28;20055;-71
2023/05/13 04:42:37;;;;;;;8.68;7.15;;;;;;;14.01;46.15;101519.53;4971009;28;20066;-71
2023/05/13 04:45:06;;;;;;;7.88;6.68;;;;;;;14.02;46.57;101522.13;4967164;28;20073;-71
2023/05/13 04:47:34;;;;;;;8.35;7.00;;;;;;;14.03;46.77;101511.97;4950976;28;20078;-71
2023/05/13 04:50:02;;;;;;;9.63;7.47;;;;;;;14.05;46.47;101514.59;4942465;28;20048;-71
2023/05/13 04:52:31;;;;;;;8.98;7.32;;;;;;;14.04;46.21;101515.59;4943946;28;20049;-71
2023/05/13 04:54:59;;;;;;;8.70;6.85;;;;;;;14.06;46.24;101519.09;4962409;28;20469;-71
2023/05/13 04:57:30;;;;;;;8.60;6.93;;;;;;;14.08;46.94;101523.47;4976587;28;20059;-71
2023/05/13 04:59:58;;;;;;;7.32;6.63;;;;;;;14.08;46.76;101522.59;4967634;28;20047;-71
2023/05/13 05:02:28;;;;;;;8.85;6.90;;;;;;;14.10;47.11;101524.19;4954441;28;20082;-71
2023/05/13 05:04:57;;;;;;;9.57;7.60;;;;;;;14.14;47.26;101525.63;4974244;28;20106;-71
2023/05/13 05:07:25;;;;;;;8.35;7.50;;;;;;;14.19;47.59;101525.22;4965710;28;20039;-71
2023/05/13 05:09:53;;;;;;;8.13;7.30;;;;;;;14.24;47.29;101528.41;4951946;28;20047;-71
2023/05/13 05:12:21;;;;;;;9.10;7.93;;;;;;;14.30;47.52;101533.34;4951645;28;20043;-71
2023/05/13 05:14:50;;;;;;;8.20;7.18;;;;;;;14.39;47.37;101532.50;4961862;28;20536;-70
2023/05/13 05:17:18;;;;;;;8.63;7.72;;;;;;;14.45;47.41;101528.28;4972430;28;20529;-71
2023/05/13 05:19:46;;;;;;;8.48;7.45;;;;;;;14.55;47.63;101534.72;4956382;28;20141;-72
2023/05/13 05:22:14;;;;;;;9.90;7.90;;;;;;;14.63;47.60;101537.63;4950403;28;20051;-72
2023/05/13 05:24:42;;;;;;;8.57;7.25;;;;;;;14.68;47.10;101533.41;4967510;28;20046;-71
2023/05/13 05:27:10;;;;;;;8.77;7.05;;;;;;;14.77;47.33;101539.94;4968004;28;20047;-70
2023/05/13 05:29:38;;;;;;;8.55;7.20;;;;;;;14.84;47.14;101541.13;4966737;28;20065;-71
2023/05/13 05:32:08;;;;;;;7.65;6.75;;;;;;;14.93;47.05;101534.69;4956788;28;20613;-71
2023/05/13 05:34:36;;;;;;;8.27;7.45;;;;;;;14.99;47.08;101531.38;4960864;28;20070;-71
2023/05/13 05:37:04;;;;;;;10.02;7.53;;;;;;;15.07;47.14;101534.28;4962738;28;20053;-71
2023/05/13 05:39:34;;;;;;;7.90;6.63;;;;;;;15.17;46.82;101533.38;4962736;28;20071;-71
2023/05/13 05:42:02;;;;;;;8.43;7.15;;;;;;;15.27;46.60;101532.31;4964588;28;20133;-71
2023/05/13 05:44:30;;;;;;;7.72;6.88;;;;;;;15.38;46.62;101525.81;4957151;28;20134;-71
2023/05/13 05:46:57;;;;;;;8.05;6.88;;;;;;;15.48;46.93;101521.16;4951465;28;20647;-71
2023/05/13 05:49:27;;;;;;;7.75;6.95;;;;;;;15.61;46.75;101521.66;4957193;28;20137;-71
2023/05/13 05:51:55;;;;;;;7.97;6.50;;;;;;;15.71;46.81;101524.38;4963725;28;20051;-71
2023/05/13 05:54:24;;;;;;;8.48;6.75;;;;;;;15.84;46.57;101527.66;4964100;28;20043;-71
2023/05/13 05:56:52;;;;;;;8.18;6.65;;;;;;;15.97;46.08;101521.78;4954828;28;20434;-71
2023/05/13 05:59:21;;;;;;;7.93;6.80;;;;;;;16.08;45.89;101529.88;4949320;28;20065;-71
2023/05/13 06:01:50;;;;;;;8.13;7.32;;;;;;;16.21;46.03;101524.88;4954356;28;20051;-71
2023/05/13 06:04:18;;;;;;;7.45;6.65;;;;;;;16.33;45.37;101531.06;4965145;23;20038;-73
2023/05/13 06:06:47;;;;;;;8.57;7.13;;;;;;;16.48;45.11;101540.56;4967827;28;20521;-74
2023/05/13 06:09:15;;;;;;;8.05;6.70;;;;;;;16.58;45.30;101547.72;4960327;28;20049;-74
2023/05/13 06:11:43;;;;;;;8.57;6.82;;;;;;;16.69;45.06;101556.81;4969488;28;20501;-74
2023/05/13 06:14:11;;;;;;;8.02;6.80;;;;;;;16.79;44.26;101552.97;4962666;28;20043;-74
2023/05/13 06:16:39;;;;;;;8.05;6.68;;;;;;;16.87;43.66;101544.72;4942799;28;20043;-74
2023/05/13 06:19:07;;;;;;;7.47;6.05;;;;;;;16.96;43.90;101552.09;4949871;28;20043;-74
2023/05/13 06:21:36;;;;;;;6.75;6.05;;;;;;;17.02;43.78;101550.59;4951970;28;20043;-75
2023/05/13 06:24:05;;;;;;;7.28;6.22;;;;;;;17.09;42.98;101562.75;4946780;28;20549;-74
2023/05/13 06:26:33;;;;;;;8.45;6.50;;;;;;;17.12;42.92;101564.34;4945147;28;20086;-74
2023/05/13 06:29:01;;;;;;;7.75;6.22;;;;;;;17.15;42.75;101552.97;4943213;28;20118;-74
2023/05/13 06:31:29;;;;;;;7.38;5.63;;;;;;;17.17;42.62;101567.47;4948253;28;20047;-75
2023/05/13 06:33:57;;;;;;;8.43;6.53;;;;;;;17.18;42.54;101559.03;4945196;28;20318;-75
2023/05/13 06:36:25;;;;;;;6.53;5.78;;;;;;;17.19;41.99;101555.22;4954096;28;20324;-74
2023/05/13 06:38:53;;;;;;;7.55;6.05;;;;;;;17.20;41.80;101559.75;4950121;28;20069;-74
2023/05/13 06:41:24;;;;;;;6.38;5.53;;;;;;;17.21;41.61;101555.09;4971778;28;20544;-75
2023/05/13 06:43:56;;;;;;;7.03;6.15;;;;;;;17.19;41.82;101562.66;4947695;28;20060;-74
2023/05/13 06:46:28;;;;;;;7.55;5.40;;;;;;;17.16;41.71;101560.19;4969694;28;20047;-74
2023/05/13 06:48:57;;;;;;;8.23;5.47;;;;;;;17.19;42.04;101568.19;4973199;28;20137;-75
2023/05/13 06:51:26;;;;;;;6.57;5.60;;;;;;;17.20;41.74;101567.16;4946895;28;20055;-74
2023/05/13 06:53:54;;;;;;;7.68;5.40;;;;;;;17.21;41.78;101582.75;4949663;28;20039;-75
2023/05/13 06:56:24;;;;;;;7.45;5.10;;;;;;;17.20;41.49;101579.09;4953632;28;20452;-75
2023/05/13 06:58:52;;;;;;;6.35;5.20;;;;;;;17.21;41.69;101574.44;4951678;28;20047;-74
2023/05/13 07:01:20;;;;;;;6.97;5.30;;;;;;;17.22;41.96;101568.75;4958918;28;20437;-74
2023/05/13 07:03:48;;;;;;;7.10;5.10;;;;;;;17.24;41.22;101574.97;4953181;28;20097;-74
2023/05/13 07:06:16;;;;;;;6.50;5.22;;;;;;;17.28;41.92;101559.81;4949960;28;20150;-74
2023/05/13 07:08:44;;;;;;;6.10;4.70;;;;;;;17.32;41.61;101566.72;4949398;28;20079;-74
2023/05/13 07:11:12;;;;;;;5.30;4.22;;;;;;;17.43;42.33;101564.75;4954881;28;20122;-74
2023/05/13 07:13:41;;;;;;;5.40;4.40;;;;;;;17.54;42.38;101572.78;4945591;28;20072;-75
2023/05/13 07:16:09;;;;;;;6.40;5.00;;;;;;;17.63;42.35;101557.97;4948758;28;20077;-74
2023/05/13 07:18:37;;;;;;;6.10;4.40;;;;;;;17.77;42.01;101565.69;4945707;28;20039;-73
2023/05/13 07:21:05;;;;;;;6.07;4.60;;;;;;;17.91;41.67;101559.53;4944754;28;20147;-74
2023/05/13 07:23:34;;;;;;;5.88;4.47;;;;;;;18.07;41.70;101556.84;4951352;28;20122;-74
2023/05/13 07:26:02;;;;;;;5.40;4.38;;;;;;;18.21;41.34;101552.59;4951683;28;20415;-74
2023/05/13 07:28:30;;;;;;;5.93;4.82;;;;;;;18.36;40.72;101563.88;4953012;28;20098;-74
2023/05/13 07:31:00;;;;;;;5.88;4.30;;;;;;;18.50;40.49;101564.13;4952842;28;20071;-74
2023/05/13 07:33:28;;;;;;;5.43;4.18;;;;;;;18.59;40.42;101562.25;4959098;28;20040;-74
2023/05/13 07:35:56;;;;;;;5.97;4.90;;;;;;;18.69;40.46;101571.28;4947982;28;20114;-73
2023/05/13 07:38:24;;;;;;;5.50;4.47;;;;;;;18.79;39.70;101568.34;4948320;28;20051;-73
2023/05/13 07:40:52;;;;;;;4.90;4.25;;;;;;;18.88;39.68;101565.41;4948473;28;20079;-74
2023/05/13 07:43:22;;;;;;;6.05;4.75;;;;;;;18.97;39.27;101574.59;4951245;28;20043;-74
2023/05/13 07:45:50;;;;;;;5.05;4.20;;;;;;;19.06;38.79;101586.56;4966230;28;20102;-73
2023/05/13 07:48:20;;;;;;;5.68;3.95;;;;;;;19.15;38.47;101580.84;4957968;28;20546;-60
2023/05/13 07:50:48;;;;;;;4.82;4.00;;;;;;;19.20;38.36;101580.34;4968374;28;20082;-60
2023/05/13 07:53:16;;;;;;;5.05;3.80;;;;;;;19.25;37.63;101566.84;4955687;28;20050;-59
2023/05/13 07:55:46;;;;;;;6.13;3.88;;;;;;;19.28;37.55;101580.38;4958653;28;20086;-57
2023/05/13 07:58:14;;;;;;;5.28;3.97;;;;;;;19.29;36.89;101582.13;4953232;28;20090;-57
2023/05/13 08:00:42;;;;;;;7.55;4.18;;;;;;;19.30;36.46;101580.19;4956259;28;20048;-59
2023/05/13 08:03:11;;;;;;;6.43;4.32;;;;;;;19.28;36.10;101580.38;4948829;28;20071;-57
2023/05/13 08:05:40;;;;;;;5.22;4.15;;;;;;;19.26;35.81;101579.69;4952638;28;20043;-61
2023/05/13 08:08:08;;;;;;;5.20;3.88;;;;;;;19.21;35.67;101576.56;4953516;28;20101;-62
2023/05/13 08:10:36;;;;;;;5.40;4.00;;;;;;;19.16;35.70;101574.25;4950708;28;20047;-62
2023/05/13 08:13:04;;;;;;;4.72;3.97;;;;;;;19.11;35.89;101573.94;4947631;28;20046;-61
2023/05/13 08:15:32;;;;;;;5.07;3.83;;;;;;;19.06;36.15;101573.56;4946534;28;21061;-61
2023/05/13 08:17:59;;;;;;;5.75;4.07;;;;;;;19.02;36.24;101569.41;4947434;28;20053;-62
2023/05/13 08:20:28;;;;;;;5.22;4.00;;;;;;;18.99;36.02;101566.09;4954798;28;20047;-61
2023/05/13 08:22:59;;;;;;;5.20;4.15;;;;;;;18.98;35.84;101564.38;4951295;28;20086;-60
2023/05/13 08:25:27;;;;;;;6.10;4.05;;;;;;;18.92;36.15;101563.16;4957917;28;20051;-58
2023/05/13 08:27:55;;;;;;;5.22;3.83;;;;;;;18.88;35.78;101573.72;4951908;28;20059;-59
2023/05/13 08:30:23;;;;;;;4.78;3.85;;;;;;;18.86;35.47;101563.84;4950535;28;20498;-60
2023/05/13 08:32:51;;;;;;;5.25;4.20;;;;;;;18.82;35.69;101568.84;4954024;28;20102;-62
2023/05/13 08:35:20;;;;;;;4.78;3.90;;;;;;;18.80;35.96;101564.53;4955807;28;20395;-60
2023/05/13 08:37:48;;;;;;;5.75;4.07;;;;;;;18.76;35.95;101577.88;4951393;28;20081;-60
2023/05/13 08:40:17;;;;;;;5.43;4.00;;;;;;;18.75;35.07;101584.44;4940623;28;20275;-61
2023/05/13 08:42:48;;;;;;;6.10;3.70;;;;;;;18.72;35.33;101587.56;4944544;28;20491;-65
2023/05/13 08:45:20;;;;;;;5.00;3.92;;;;;;;18.70;34.89;101586.00;4944305;28;20139;-58
2023/05/13 08:47:55;;;;;;;6.75;3.83;;;;;;;18.65;35.20;101578.19;4952674;28;20046;-58
2023/05/13 08:50:24;;;;;;;5.60;3.95;;;;;;;18.65;35.83;101586.50;4957840;28;20046;-58
2023/05/13 08:52:53;;;;;;;4.75;3.70;;;;;;;18.67;36.20;101586.34;4950221;28;20498;-60
2023/05/13 08:55:23;;;;;;;5.03;3.75;;;;;;;18.72;35.99;101587.56;4948951;28;20047;-61
2023/05/13 08:57:52;;;;;;;5.18;3.92;;;;;;;18.74;36.06;101581.84;4950491;28;20050;-57
2023/05/13 09:00:20;;;;;;;5.57;3.80;;;;;;;18.79;36.50;101572.00;4947123;28;20475;-59
2023/05/13 09:02:49;;;;;;;4.75;3.78;;;;;;;18.88;36.54;101579.25;4948400;28;20384;-62
2023/05/13 09:05:18;;;;;;;3.95;3.22;;;;;;;18.96;36.79;101572.88;4956062;28;20538;-56
2023/05/13 09:07:47;;;;;;;4.95;3.20;;;;;;;19.06;37.09;101570.78;4954447;28;20462;-58
2023/05/13 09:10:17;;;;;;;6.45;4.03;;;;;;;19.18;36.54;101572.19;4952352;28;20047;-61
2023/05/13 09:12:48;;;;;;;5.82;3.70;;;;;;;19.32;36.81;101570.63;4949484;28;20078;-61
2023/05/13 09:15:18;;;;;;;5.15;3.65;;;;;;;19.44;37.12;101574.81;4945760;28;20074;-62
2023/05/13 09:17:51;;;;;;;5.18;3.67;;;;;;;19.58;36.84;101571.31;4948662;28;20130;-57
2023/05/13 09:20:20;;;;;;;5.53;3.92;;;;;;;19.69;36.96;101572.84;4955971;28;20101;-64
2023/05/13 09:22:49;;;;;;;5.20;3.80;;;;;;;19.85;36.50;101563.63;4951164;28;20047;-63
2023/05/13 09:25:19;;;;;;;5.13;4.10;;;;;;;19.99;36.68;101568.44;4949762;28;20086;-63
2023/05/13 09:27:51;;;;;;;5.47;4.10;;;;;;;20.14;35.87;101563.88;4953389;28;20518;-59
2023/05/13 09:30:20;;;;;;;6.10;4.15;;;;;;;20.24;36.26;101556.19;4951584;28;20051;-61
2023/05/13 09:33:06;;;;;;;4.85;3.80;;;;;;;20.39;35.58;101559.94;4955944;28;20143;-59
2023/05/13 09:35:36;;;;;;;5.97;4.00;;;;;;;20.52;36.29;101547.38;4945838;28;20047;-59
2023/05/13 09:38:13;;;;;;;4.78;3.90;;;;;;;20.67;34.94;101549.19;4954561;28;20058;-60
2023/05/13 09:40:41;;;;;;;6.25;3.92;;;;;;;20.76;35.75;101538.88;4955601;28;20075;-61
2023/05/13 09:43:11;;;;;;;5.03;3.95;;;;;;;20.88;35.35;101534.59;4952060;28;20344;-60
2023/05/13 09:45:38;;;;;;;5.43;3.47;;;;;;;20.97;35.03;101530.72;4952018;28;20107;-59
2023/05/13 09:48:08;;;;;;;6.55;3.97;;;;;;;21.09;35.10;101533.94;4963894;28;20078;-62
2023/05/13 09:50:46;;;;;;;5.28;3.95;;;;;;;21.21;32.90;101537.09;4951979;28;20490;-60
2023/05/13 09:53:14;;;;;;;5.00;3.75;;;;;;;21.27;34.35;101540.06;4950508;28;20051;-63
2023/05/13 09:55:46;;;;;;;5.13;3.53;;;;;;;21.38;33.19;101538.72;4952090;28;20039;-62
2023/05/13 09:58:15;;;;;;;5.55;3.83;;;;;;;21.41;33.06;101536.44;4954955;28;20047;-59
2023/05/13 10:00:44;;;;;;;4.93;3.50;;;;;;;21.47;33.11;101532.88;4943329;28;20051;-65
2023/05/13 10:03:12;;;;;;;4.80;3.58;;;;;;;21.50;32.50;101524.16;4949492;28;20499;-64
2023/05/13 10:05:41;;;;;;;4.93;3.70;;;;;;;21.55;32.22;101525.50;4948730;28;20082;-63
2023/05/13 10:08:11;;;;;;;5.00;3.47;;;;;;;21.57;32.27;101515.03;4952173;28;20375;-60
2023/05/13 10:10:44;;;;;;;4.85;3.45;;;;;;;21.58;31.79;101509.28;4946303;28;20070;-57
2023/05/13 10:13:18;;;;;;;5.10;3.90;;;;;;;21.62;31.35;101516.19;4949429;28;20065;-63
2023/05/13 10:15:50;;;;;;;4.90;3.45;;;;;;;21.62;30.53;101510.59;4944294;28;20066;-61
2023/05/13 10:18:19;;;;;;;4.80;3.72;;;;;;;21.61;31.06;101505.22;4945653;28;20091;-60
2023/05/13 10:20:51;;;;;;;4.82;3.70;;;;;;;21.64;30.90;101505.72;4950212;28;20047;-64
2023/05/13 10:23:21;;;;;;;5.78;4.00;;;;;;;21.63;30.06;101497.53;4948875;28;20046;-62
2023/05/13 10:25:50;;;;;;;6.18;3.92;;;;;;;21.68;30.37;101503.44;4949437;28;20061;-63
2023/05/13 10:28:20;;;;;;;5.75;4.03;;;;;;;21.68;29.90;101501.50;4949392;28;20047;-62
2023/05/13 10:30:49;;;;;;;5.55;3.83;;;;;;;21.72;30.80;101497.25;4947159;28;20047;-62
2023/05/13 10:33:18;;;;;;;4.80;3.53;;;;;;;21.70;30.36;101491.00;4949808;28;20058;-61
2023/05/13 10:35:56;;;;;;;5.78;4.40;;;;;;;21.73;29.04;101492.56;4949162;28;20054;-62
2023/05/13 10:38:37;;;;;;;6.30;4.03;;;;;;;21.72;27.77;101500.06;4958760;28;20047;-63
2023/05/13 10:41:11;;;;;;;6.13;4.07;;;;;;;21.74;28.84;101495.16;4968550;28;20042;-62
2023/05/13 10:43:41;;;;;;;6.03;3.97;;;;;;;21.74;29.79;101491.50;4970475;28;20141;-61
2023/05/13 10:46:12;;;;;;;5.15;4.28;;;;;;;21.76;29.24;101498.63;4953302;28;20040;-62
2023/05/13 10:48:42;;;;;;;4.72;4.00;;;;;;;21.76;29.97;101490.28;4957261;28;20130;-62
2023/05/13 10:51:14;;;;;;;6.80;4.43;;;;;;;21.79;28.70;101486.22;4951500;28;20137;-62
2023/05/13 10:53:48;;;;;;;5.15;4.13;;;;;;;21.81;29.08;101473.81;4958930;28;20081;-60
2023/05/13 10:56:19;;;;;;;5.75;4.00;;;;;;;21.83;29.73;101468.06;4952629;28;20495;-61
2023/05/13 10:58:59;;;;;;;5.22;3.85;;;;;;;21.86;29.41;101468.53;4962000;28;20094;-62
2023/05/13 11:01:28;;;;;;;5.07;3.50;;;;;;;21.91;30.32;101476.34;4952955;28;20459;-62
2023/05/13 11:03:58;;;;;;;4.90;3.55;;;;;;;21.97;30.06;101467.19;4965217;28;20055;-62
2023/05/13 11:06:31;;;;;;;4.43;3.33;;;;;;;22.02;29.21;101474.97;4949928;28;20086;-63
2023/05/13 11:08:59;;;;;;;5.18;3.63;;;;;;;22.04;28.80;101475.63;4956520;28;20138;-60
2023/05/13 11:11:31;;;;;;;6.18;3.88;;;;;;;22.08;27.34;101469.50;4948771;28;20039;-61
2023/05/13 11:14:06;;;;;;;;;;;;;;;21.74;26.29;101472.88;4949941;28;20051;-59
2023/05/13 11:16:36;;;;;;;4.53;3.60;;;;;;;22.02;27.87;101470.25;4947149;28;20053;-61
2023/05/13 11:19:09;;;;;;;4.80;3.92;;;;;;;22.09;27.73;101468.44;4951174;28;20074;-61
2023/05/13 11:21:39;;;;;;;4.93;3.92;;;;;;;22.09;27.63;101459.22;4951488;28;20415;-64
2023/05/13 11:24:08;;;;;;;4.75;3.55;;;;;;;22.13;28.07;101468.91;4954495;28;20046;-61
2023/05/13 11:26:46;;;;;;;5.90;3.70;;;;;;;22.18;27.41;101458.00;4958286;28;20085;-61
2023/05/13 11:29:27;;;;;;;6.70;4.03;;;;;;;22.17;27.00;101457.19;4953984;28;20042;-61
2023/05/13 11:31:57;;;;;;;5.88;4.00;;;;;;;22.14;27.68;101453.91;4960312;28;20133;-63
2023/05/13 11:34:28;;;;;;;4.82;3.88;;;;;;;22.12;27.29;101454.09;4956878;28;20074;-61
2023/05/13 11:37:07;;;;;;;6.18;3.70;;;;;;;22.19;27.03;101455.03;4945021;28;20069;-63